sensor_id;sensor_type;location;lat;lon;timestamp;P1;durP1;ratioP1;P2;durP2;ratioP2
20391;SDS011;10355;53.688;10.078;2022-11-06T00:02:17;5.05;;;2.30;;
20391;SDS011;10355;53.688;10.078;2022-11-06T00:05:03;3.80;;;2.15;;
20391;SDS011;10355;53.688;10.078;2022-11-06T00:08:00;5.57;;;2.55;;
20391;SDS011;10355;53.688;10.078;2022-11-06T00:13:51;3.55;;;2.15;;
20391;SDS011;10355;53.688;10.078;2022-11-06T00:16:40;6.63;;;2.67;;
20391;SDS011;10355;53.688;10.078;2022-11-06T00:19:23;4.22;;;2.30;;
20391;SDS011;10355;53.688;10.078;2022-11-06T00:22:07;3.50;;;2.00;;
20391;SDS011;10355;53.688;10.078;2022-11-06T00:24:50;4.90;;;2.30;;
20391;SDS011;10355;53.688;10.078;2022-11-06T00:27:38;5.60;;;2.42;;
20391;SDS011;10355;53.688;10.078;2022-11-06T00:30:23;4.68;;;2.05;;
20391;SDS011;10355;53.688;10.078;2022-11-06T00:33:06;4.68;;;2.10;;
20391;SDS011;10355;53.688;10.078;2022-11-06T00:35:51;4.50;;;2.13;;
20391;SDS011;10355;53.688;10.078;2022-11-06T00:38:35;5.88;;;2.30;;
20391;SDS011;10355;53.688;10.078;2022-11-06T00:44:26;4.50;;;1.83;;
20391;SDS011;10355;53.688;10.078;2022-11-06T00:47:14;6.05;;;2.10;;
20391;SDS011;10355;53.688;10.078;2022-11-06T00:49:57;4.45;;;1.80;;
20391;SDS011;10355;53.688;10.078;2022-11-06T00:52:40;3.40;;;1.83;;
20391;SDS011;10355;53.688;10.078;2022-11-06T00:55:25;4.00;;;2.22;;
20391;SDS011;10355;53.688;10.078;2022-11-06T00:58:07;4.13;;;1.85;;
20391;SDS011;10355;53.688;10.078;2022-11-06T01:00:51;3.28;;;1.80;;
20391;SDS011;10355;53.688;10.078;2022-11-06T01:03:37;3.67;;;2.20;;
20391;SDS011;10355;53.688;10.078;2022-11-06T01:06:20;3.55;;;2.08;;
20391;SDS011;10355;53.688;10.078;2022-11-06T01:09:11;2.28;;;1.75;;
20391;SDS011;10355;53.688;10.078;2022-11-06T01:11:56;4.60;;;1.70;;
20391;SDS011;10355;53.688;10.078;2022-11-06T01:15:26;3.85;;;1.65;;
20391;SDS011;10355;53.688;10.078;2022-11-06T01:18:09;3.55;;;1.77;;
20391;SDS011;10355;53.688;10.078;2022-11-06T01:21:02;3.42;;;1.88;;
20391;SDS011;10355;53.688;10.078;2022-11-06T01:23:45;6.55;;;1.88;;
20391;SDS011;10355;53.688;10.078;2022-11-06T01:26:28;3.92;;;1.77;;
20391;SDS011;10355;53.688;10.078;2022-11-06T01:29:21;2.63;;;1.58;;
20391;SDS011;10355;53.688;10.078;2022-11-06T01:32:05;3.60;;;1.67;;
20391;SDS011;10355;53.688;10.078;2022-11-06T01:34:48;4.18;;;1.92;;
20391;SDS011;10355;53.688;10.078;2022-11-06T01:37:30;2.90;;;1.60;;
20391;SDS011;10355;53.688;10.078;2022-11-06T01:43:22;4.88;;;1.90;;
20391;SDS011;10355;53.688;10.078;2022-11-06T01:46:06;4.90;;;1.73;;
20391;SDS011;10355;53.688;10.078;2022-11-06T01:52:04;2.22;;;1.40;;
20391;SDS011;10355;53.688;10.078;2022-11-06T01:54:48;3.25;;;1.60;;
20391;SDS011;10355;53.688;10.078;2022-11-06T01:57:32;4.25;;;1.75;;
20391;SDS011;10355;53.688;10.078;2022-11-06T02:00:16;3.00;;;1.70;;
20391;SDS011;10355;53.688;10.078;2022-11-06T02:03:01;4.05;;;1.70;;
20391;SDS011;10355;53.688;10.078;2022-11-06T02:05:48;3.83;;;1.80;;
20391;SDS011;10355;53.688;10.078;2022-11-06T02:08:31;5.18;;;1.70;;
20391;SDS011;10355;53.688;10.078;2022-11-06T02:11:15;3.40;;;1.83;;
20391;SDS011;10355;53.688;10.078;2022-11-06T02:14:03;4.43;;;1.42;;
20391;SDS011;10355;53.688;10.078;2022-11-06T02:16:51;2.47;;;1.58;;
20391;SDS011;10355;53.688;10.078;2022-11-06T02:19:47;3.53;;;1.90;;
20391;SDS011;10355;53.688;10.078;2022-11-06T02:22:38;2.78;;;1.70;;
20391;SDS011;10355;53.688;10.078;2022-11-06T02:25:24;2.38;;;1.40;;
20391;SDS011;10355;53.688;10.078;2022-11-06T02:28:16;3.35;;;1.83;;
20391;SDS011;10355;53.688;10.078;2022-11-06T02:31:00;3.63;;;1.90;;
20391;SDS011;10355;53.688;10.078;2022-11-06T02:33:46;3.08;;;1.80;;
20391;SDS011;10355;53.688;10.078;2022-11-06T02:36:31;2.55;;;1.73;;
20391;SDS011;10355;53.688;10.078;2022-11-06T02:39:15;2.97;;;1.80;;
20391;SDS011;10355;53.688;10.078;2022-11-06T02:42:00;5.07;;;1.90;;
20391;SDS011;10355;53.688;10.078;2022-11-06T02:44:46;3.00;;;1.70;;
20391;SDS011;10355;53.688;10.078;2022-11-06T02:47:31;5.18;;;1.80;;
20391;SDS011;10355;53.688;10.078;2022-11-06T02:50:15;3.22;;;1.80;;
20391;SDS011;10355;53.688;10.078;2022-11-06T02:53:00;3.22;;;1.65;;
20391;SDS011;10355;53.688;10.078;2022-11-06T02:55:46;4.05;;;1.83;;
20391;SDS011;10355;53.688;10.078;2022-11-06T02:58:30;3.80;;;1.60;;
20391;SDS011;10355;53.688;10.078;2022-11-06T03:01:22;2.75;;;1.70;;
20391;SDS011;10355;53.688;10.078;2022-11-06T03:04:10;3.00;;;1.52;;
20391;SDS011;10355;53.688;10.078;2022-11-06T03:06:56;5.38;;;1.85;;
20391;SDS011;10355;53.688;10.078;2022-11-06T03:09:41;3.33;;;1.63;;
20391;SDS011;10355;53.688;10.078;2022-11-06T03:12:25;3.55;;;1.60;;
20391;SDS011;10355;53.688;10.078;2022-11-06T03:18:21;2.58;;;1.30;;
20391;SDS011;10355;53.688;10.078;2022-11-06T03:21:06;3.08;;;1.50;;
20391;SDS011;10355;53.688;10.078;2022-11-06T03:23:54;4.00;;;1.50;;
20391;SDS011;10355;53.688;10.078;2022-11-06T03:26:41;3.08;;;1.48;;
20391;SDS011;10355;53.688;10.078;2022-11-06T03:29:28;4.18;;;1.67;;
20391;SDS011;10355;53.688;10.078;2022-11-06T03:32:16;4.35;;;2.00;;
20391;SDS011;10355;53.688;10.078;2022-11-06T03:35:05;3.50;;;1.70;;
20391;SDS011;10355;53.688;10.078;2022-11-06T03:37:50;3.10;;;1.60;;
20391;SDS011;10355;53.688;10.078;2022-11-06T03:40:35;5.63;;;2.17;;
20391;SDS011;10355;53.688;10.078;2022-11-06T03:43:19;2.30;;;1.63;;
20391;SDS011;10355;53.688;10.078;2022-11-06T03:46:05;3.38;;;1.70;;
20391;SDS011;10355;53.688;10.078;2022-11-06T03:48:49;2.80;;;1.60;;
20391;SDS011;10355;53.688;10.078;2022-11-06T03:51:36;3.90;;;1.67;;
20391;SDS011;10355;53.688;10.078;2022-11-06T03:54:20;3.13;;;1.52;;
20391;SDS011;10355;53.688;10.078;2022-11-06T03:57:06;3.38;;;1.60;;
20391;SDS011;10355;53.688;10.078;2022-11-06T03:59:52;7.30;;;1.75;;
20391;SDS011;10355;53.688;10.078;2022-11-06T04:02:37;4.85;;;1.85;;
20391;SDS011;10355;53.688;10.078;2022-11-06T04:05:24;3.88;;;1.80;;
20391;SDS011;10355;53.688;10.078;2022-11-06T04:08:08;3.10;;;1.67;;
20391;SDS011;10355;53.688;10.078;2022-11-06T04:11:09;3.35;;;1.40;;
20391;SDS011;10355;53.688;10.078;2022-11-06T04:14:12;2.42;;;1.40;;
20391;SDS011;10355;53.688;10.078;2022-11-06T04:16:56;3.40;;;1.65;;
20391;SDS011;10355;53.688;10.078;2022-11-06T04:19:40;5.32;;;1.77;;
20391;SDS011;10355;53.688;10.078;2022-11-06T04:22:30;4.15;;;1.48;;
20391;SDS011;10355;53.688;10.078;2022-11-06T04:25:19;5.90;;;1.98;;
20391;SDS011;10355;53.688;10.078;2022-11-06T04:28:28;4.78;;;1.67;;
20391;SDS011;10355;53.688;10.078;2022-11-06T04:31:14;2.83;;;1.40;;
20391;SDS011;10355;53.688;10.078;2022-11-06T04:34:03;3.35;;;1.70;;
20391;SDS011;10355;53.688;10.078;2022-11-06T04:36:50;3.25;;;1.70;;
20391;SDS011;10355;53.688;10.078;2022-11-06T04:39:36;4.20;;;1.40;;
20391;SDS011;10355;53.688;10.078;2022-11-06T04:42:24;2.00;;;1.30;;
20391;SDS011;10355;53.688;10.078;2022-11-06T04:45:09;3.03;;;1.40;;
20391;SDS011;10355;53.688;10.078;2022-11-06T04:47:53;4.60;;;1.83;;
20391;SDS011;10355;53.688;10.078;2022-11-06T04:50:37;4.70;;;1.45;;
20391;SDS011;10355;53.688;10.078;2022-11-06T04:53:21;2.65;;;1.35;;
20391;SDS011;10355;53.688;10.078;2022-11-06T04:56:05;4.15;;;1.60;;
20391;SDS011;10355;53.688;10.078;2022-11-06T04:58:50;5.97;;;1.50;;
20391;SDS011;10355;53.688;10.078;2022-11-06T05:01:32;3.03;;;1.52;;
20391;SDS011;10355;53.688;10.078;2022-11-06T05:04:16;3.60;;;1.67;;
20391;SDS011;10355;53.688;10.078;2022-11-06T05:06:58;3.90;;;1.60;;
20391;SDS011;10355;53.688;10.078;2022-11-06T05:09:44;4.93;;;1.50;;
20391;SDS011;10355;53.688;10.078;2022-11-06T05:12:27;5.38;;;1.60;;
20391;SDS011;10355;53.688;10.078;2022-11-06T05:15:11;2.88;;;1.38;;
20391;SDS011;10355;53.688;10.078;2022-11-06T05:17:55;4.72;;;1.25;;
20391;SDS011;10355;53.688;10.078;2022-11-06T05:20:38;4.30;;;1.38;;
20391;SDS011;10355;53.688;10.078;2022-11-06T05:23:21;3.67;;;1.33;;
20391;SDS011;10355;53.688;10.078;2022-11-06T05:26:03;3.35;;;1.63;;
20391;SDS011;10355;53.688;10.078;2022-11-06T05:28:46;4.35;;;1.83;;
20391;SDS011;10355;53.688;10.078;2022-11-06T05:31:30;4.20;;;1.40;;
20391;SDS011;10355;53.688;10.078;2022-11-06T05:34:13;4.70;;;1.60;;
20391;SDS011;10355;53.688;10.078;2022-11-06T05:36:56;4.00;;;1.50;;
20391;SDS011;10355;53.688;10.078;2022-11-06T05:39:39;3.90;;;1.60;;
20391;SDS011;10355;53.688;10.078;2022-11-06T05:42:22;2.97;;;1.75;;
20391;SDS011;10355;53.688;10.078;2022-11-06T05:45:05;2.88;;;1.33;;
20391;SDS011;10355;53.688;10.078;2022-11-06T05:47:50;2.30;;;1.40;;
20391;SDS011;10355;53.688;10.078;2022-11-06T05:50:33;2.53;;;1.48;;
20391;SDS011;10355;53.688;10.078;2022-11-06T05:53:19;4.43;;;1.50;;
20391;SDS011;10355;53.688;10.078;2022-11-06T05:56:01;2.72;;;1.35;;
20391;SDS011;10355;53.688;10.078;2022-11-06T05:58:45;5.18;;;2.10;;
20391;SDS011;10355;53.688;10.078;2022-11-06T06:01:29;4.30;;;1.90;;
20391;SDS011;10355;53.688;10.078;2022-11-06T06:04:13;4.40;;;1.50;;
20391;SDS011;10355;53.688;10.078;2022-11-06T06:06:56;4.13;;;1.48;;
20391;SDS011;10355;53.688;10.078;2022-11-06T06:09:39;3.17;;;1.40;;
20391;SDS011;10355;53.688;10.078;2022-11-06T06:12:22;4.90;;;1.40;;
20391;SDS011;10355;53.688;10.078;2022-11-06T06:15:07;5.18;;;1.67;;
20391;SDS011;10355;53.688;10.078;2022-11-06T06:17:50;3.45;;;1.30;;
20391;SDS011;10355;53.688;10.078;2022-11-06T06:20:34;4.15;;;1.60;;
20391;SDS011;10355;53.688;10.078;2022-11-06T06:23:17;4.88;;;1.70;;
20391;SDS011;10355;53.688;10.078;2022-11-06T06:26:00;3.38;;;1.67;;
20391;SDS011;10355;53.688;10.078;2022-11-06T06:28:42;5.40;;;1.83;;
20391;SDS011;10355;53.688;10.078;2022-11-06T06:31:25;4.22;;;1.52;;
20391;SDS011;10355;53.688;10.078;2022-11-06T06:34:08;5.47;;;1.75;;
20391;SDS011;10355;53.688;10.078;2022-11-06T06:36:52;3.33;;;1.63;;
20391;SDS011;10355;53.688;10.078;2022-11-06T06:39:35;4.75;;;1.50;;
20391;SDS011;10355;53.688;10.078;2022-11-06T06:42:18;3.25;;;1.40;;
20391;SDS011;10355;53.688;10.078;2022-11-06T06:45:01;2.67;;;1.60;;
20391;SDS011;10355;53.688;10.078;2022-11-06T06:47:47;4.07;;;1.50;;
20391;SDS011;10355;53.688;10.078;2022-11-06T06:50:30;2.47;;;1.45;;
20391;SDS011;10355;53.688;10.078;2022-11-06T06:53:14;2.92;;;1.50;;
20391;SDS011;10355;53.688;10.078;2022-11-06T06:55:59;3.00;;;1.40;;
20391;SDS011;10355;53.688;10.078;2022-11-06T06:58:42;4.50;;;1.63;;
20391;SDS011;10355;53.688;10.078;2022-11-06T07:01:24;2.83;;;1.73;;
20391;SDS011;10355;53.688;10.078;2022-11-06T07:04:08;3.35;;;1.42;;
20391;SDS011;10355;53.688;10.078;2022-11-06T07:06:51;3.33;;;1.40;;
20391;SDS011;10355;53.688;10.078;2022-11-06T07:09:35;3.67;;;1.50;;
20391;SDS011;10355;53.688;10.078;2022-11-06T07:12:18;4.65;;;1.50;;
20391;SDS011;10355;53.688;10.078;2022-11-06T07:15:01;3.95;;;1.65;;
20391;SDS011;10355;53.688;10.078;2022-11-06T07:17:44;3.72;;;1.42;;
20391;SDS011;10355;53.688;10.078;2022-11-06T07:20:26;2.05;;;1.30;;
20391;SDS011;10355;53.688;10.078;2022-11-06T07:23:09;3.20;;;1.73;;
20391;SDS011;10355;53.688;10.078;2022-11-06T07:25:53;3.65;;;1.50;;
20391;SDS011;10355;53.688;10.078;2022-11-06T07:28:36;3.33;;;1.30;;
20391;SDS011;10355;53.688;10.078;2022-11-06T07:31:20;3.47;;;1.40;;
20391;SDS011;10355;53.688;10.078;2022-11-06T07:34:02;1.95;;;1.27;;
20391;SDS011;10355;53.688;10.078;2022-11-06T07:36:48;2.20;;;1.25;;
20391;SDS011;10355;53.688;10.078;2022-11-06T07:39:30;2.85;;;1.30;;
20391;SDS011;10355;53.688;10.078;2022-11-06T07:45:29;3.10;;;1.30;;
20391;SDS011;10355;53.688;10.078;2022-11-06T07:48:12;3.33;;;1.30;;
20391;SDS011;10355;53.688;10.078;2022-11-06T07:50:56;3.60;;;1.30;;
20391;SDS011;10355;53.688;10.078;2022-11-06T07:53:41;3.38;;;1.00;;
20391;SDS011;10355;53.688;10.078;2022-11-06T07:56:23;3.65;;;1.27;;
20391;SDS011;10355;53.688;10.078;2022-11-06T07:59:06;3.20;;;1.38;;
20391;SDS011;10355;53.688;10.078;2022-11-06T08:01:51;2.25;;;1.10;;
20391;SDS011;10355;53.688;10.078;2022-11-06T08:04:34;3.47;;;1.13;;
20391;SDS011;10355;53.688;10.078;2022-11-06T08:07:17;2.22;;;1.15;;
20391;SDS011;10355;53.688;10.078;2022-11-06T08:09:59;3.05;;;1.30;;
20391;SDS011;10355;53.688;10.078;2022-11-06T08:12:44;3.72;;;1.60;;
20391;SDS011;10355;53.688;10.078;2022-11-06T08:15:27;3.00;;;1.30;;
20391;SDS011;10355;53.688;10.078;2022-11-06T08:21:18;1.40;;;1.10;;
20391;SDS011;10355;53.688;10.078;2022-11-06T08:24:02;3.50;;;1.55;;
20391;SDS011;10355;53.688;10.078;2022-11-06T08:26:45;2.67;;;1.10;;
20391;SDS011;10355;53.688;10.078;2022-11-06T08:29:28;2.83;;;1.23;;
20391;SDS011;10355;53.688;10.078;2022-11-06T08:35:18;4.15;;;1.00;;
20391;SDS011;10355;53.688;10.078;2022-11-06T08:38:03;3.90;;;1.27;;
20391;SDS011;10355;53.688;10.078;2022-11-06T08:40:46;3.63;;;1.13;;
20391;SDS011;10355;53.688;10.078;2022-11-06T08:43:34;2.53;;;1.20;;
20391;SDS011;10355;53.688;10.078;2022-11-06T08:46:17;2.38;;;1.27;;
20391;SDS011;10355;53.688;10.078;2022-11-06T08:49:00;2.63;;;1.10;;
20391;SDS011;10355;53.688;10.078;2022-11-06T08:51:43;0.82;;;0.57;;
20391;SDS011;10355;53.688;10.078;2022-11-06T08:54:27;3.75;;;1.35;;
20391;SDS011;10355;53.688;10.078;2022-11-06T08:57:10;1.90;;;0.60;;
20391;SDS011;10355;53.688;10.078;2022-11-06T08:59:53;4.93;;;1.20;;
20391;SDS011;10355;53.688;10.078;2022-11-06T09:02:36;4.13;;;1.20;;
20391;SDS011;10355;53.688;10.078;2022-11-06T09:05:19;2.72;;;0.90;;
20391;SDS011;10355;53.688;10.078;2022-11-06T09:08:02;2.55;;;1.00;;
20391;SDS011;10355;53.688;10.078;2022-11-06T09:10:46;2.55;;;1.10;;
20391;SDS011;10355;53.688;10.078;2022-11-06T09:13:32;3.45;;;1.10;;
20391;SDS011;10355;53.688;10.078;2022-11-06T09:16:15;3.08;;;1.25;;
20391;SDS011;10355;53.688;10.078;2022-11-06T09:18:58;3.30;;;1.20;;
20391;SDS011;10355;53.688;10.078;2022-11-06T09:21:41;5.10;;;1.38;;
20391;SDS011;10355;53.688;10.078;2022-11-06T09:24:23;2.15;;;0.90;;
20391;SDS011;10355;53.688;10.078;2022-11-06T09:27:28;4.53;;;1.20;;
20391;SDS011;10355;53.688;10.078;2022-11-06T09:30:11;3.03;;;1.23;;
20391;SDS011;10355;53.688;10.078;2022-11-06T09:32:57;2.63;;;1.10;;
20391;SDS011;10355;53.688;10.078;2022-11-06T09:35:40;2.92;;;1.20;;
20391;SDS011;10355;53.688;10.078;2022-11-06T09:38:32;3.85;;;1.05;;
20391;SDS011;10355;53.688;10.078;2022-11-06T09:41:17;3.83;;;1.00;;
20391;SDS011;10355;53.688;10.078;2022-11-06T09:44:06;2.83;;;1.13;;
20391;SDS011;10355;53.688;10.078;2022-11-06T09:46:52;2.20;;;1.00;;
20391;SDS011;10355;53.688;10.078;2022-11-06T09:49:38;1.65;;;1.00;;
20391;SDS011;10355;53.688;10.078;2022-11-06T09:52:25;3.53;;;1.30;;
20391;SDS011;10355;53.688;10.078;2022-11-06T09:55:12;3.55;;;1.10;;
20391;SDS011;10355;53.688;10.078;2022-11-06T09:57:58;3.55;;;1.00;;
20391;SDS011;10355;53.688;10.078;2022-11-06T10:00:42;2.38;;;1.08;;
20391;SDS011;10355;53.688;10.078;2022-11-06T10:03:31;3.67;;;1.20;;
20391;SDS011;10355;53.688;10.078;2022-11-06T10:06:14;4.60;;;1.10;;
20391;SDS011;10355;53.688;10.078;2022-11-06T10:08:57;2.78;;;1.20;;
20391;SDS011;10355;53.688;10.078;2022-11-06T10:11:53;2.75;;;0.93;;
20391;SDS011;10355;53.688;10.078;2022-11-06T10:14:49;3.40;;;1.23;;
20391;SDS011;10355;53.688;10.078;2022-11-06T10:17:41;4.90;;;1.45;;
20391;SDS011;10355;53.688;10.078;2022-11-06T10:20:28;4.97;;;1.20;;
20391;SDS011;10355;53.688;10.078;2022-11-06T10:23:16;5.13;;;1.10;;
20391;SDS011;10355;53.688;10.078;2022-11-06T10:26:03;5.22;;;1.00;;
20391;SDS011;10355;53.688;10.078;2022-11-06T10:31:47;5.32;;;1.10;;
20391;SDS011;10355;53.688;10.078;2022-11-06T10:34:43;2.53;;;0.93;;
20391;SDS011;10355;53.688;10.078;2022-11-06T10:37:29;2.95;;;1.00;;
20391;SDS011;10355;53.688;10.078;2022-11-06T10:43:42;3.60;;;1.10;;
20391;SDS011;10355;53.688;10.078;2022-11-06T10:49:45;1.92;;;1.00;;
20391;SDS011;10355;53.688;10.078;2022-11-06T11:03:23;4.00;;;1.13;;
20391;SDS011;10355;53.688;10.078;2022-11-06T11:06:09;1.88;;;0.80;;
20391;SDS011;10355;53.688;10.078;2022-11-06T11:08:52;4.10;;;0.90;;
20391;SDS011;10355;53.688;10.078;2022-11-06T11:11:35;1.95;;;0.88;;
20391;SDS011;10355;53.688;10.078;2022-11-06T11:14:20;2.78;;;1.13;;
20391;SDS011;10355;53.688;10.078;2022-11-06T11:17:06;3.63;;;0.90;;
20391;SDS011;10355;53.688;10.078;2022-11-06T11:19:49;4.03;;;1.20;;
20391;SDS011;10355;53.688;10.078;2022-11-06T11:22:33;1.45;;;0.80;;
20391;SDS011;10355;53.688;10.078;2022-11-06T11:25:23;2.97;;;1.05;;
20391;SDS011;10355;53.688;10.078;2022-11-06T11:28:10;2.28;;;0.80;;
20391;SDS011;10355;53.688;10.078;2022-11-06T11:30:54;2.67;;;0.98;;
20391;SDS011;10355;53.688;10.078;2022-11-06T11:33:38;1.73;;;0.90;;
20391;SDS011;10355;53.688;10.078;2022-11-06T11:36:22;2.60;;;0.98;;
20391;SDS011;10355;53.688;10.078;2022-11-06T11:39:07;5.25;;;1.10;;
20391;SDS011;10355;53.688;10.078;2022-11-06T11:41:49;3.20;;;1.08;;
20391;SDS011;10355;53.688;10.078;2022-11-06T11:44:32;3.60;;;0.80;;
20391;SDS011;10355;53.688;10.078;2022-11-06T11:47:19;3.30;;;1.00;;
20391;SDS011;10355;53.688;10.078;2022-11-06T11:50:11;4.55;;;1.00;;
20391;SDS011;10355;53.688;10.078;2022-11-06T11:53:01;2.63;;;1.08;;
20391;SDS011;10355;53.688;10.078;2022-11-06T11:55:52;1.00;;;0.82;;
20391;SDS011;10355;53.688;10.078;2022-11-06T11:58:34;3.08;;;1.00;;
20391;SDS011;10355;53.688;10.078;2022-11-06T12:01:19;2.05;;;0.90;;
20391;SDS011;10355;53.688;10.078;2022-11-06T12:04:16;3.63;;;0.77;;
20391;SDS011;10355;53.688;10.078;2022-11-06T12:07:01;3.13;;;0.90;;
20391;SDS011;10355;53.688;10.078;2022-11-06T12:09:45;4.13;;;1.10;;
20391;SDS011;10355;53.688;10.078;2022-11-06T12:12:29;4.97;;;1.15;;
20391;SDS011;10355;53.688;10.078;2022-11-06T12:15:17;3.95;;;0.90;;
20391;SDS011;10355;53.688;10.078;2022-11-06T12:18:01;2.08;;;0.80;;
20391;SDS011;10355;53.688;10.078;2022-11-06T12:20:48;2.25;;;1.00;;
20391;SDS011;10355;53.688;10.078;2022-11-06T12:23:33;2.85;;;0.73;;
20391;SDS011;10355;53.688;10.078;2022-11-06T12:26:20;2.60;;;0.95;;
20391;SDS011;10355;53.688;10.078;2022-11-06T12:29:09;2.45;;;0.95;;
20391;SDS011;10355;53.688;10.078;2022-11-06T12:31:54;1.75;;;0.80;;
20391;SDS011;10355;53.688;10.078;2022-11-06T12:34:42;2.08;;;0.90;;
20391;SDS011;10355;53.688;10.078;2022-11-06T12:37:30;2.08;;;0.95;;
20391;SDS011;10355;53.688;10.078;2022-11-06T12:40:17;3.55;;;0.80;;
20391;SDS011;10355;53.688;10.078;2022-11-06T12:43:14;2.35;;;0.88;;
20391;SDS011;10355;53.688;10.078;2022-11-06T12:46:02;2.63;;;1.00;;
20391;SDS011;10355;53.688;10.078;2022-11-06T12:51:55;1.38;;;0.70;;
20391;SDS011;10355;53.688;10.078;2022-11-06T12:54:47;2.05;;;0.80;;
20391;SDS011;10355;53.688;10.078;2022-11-06T12:57:33;1.25;;;0.70;;
20391;SDS011;10355;53.688;10.078;2022-11-06T13:00:18;1.25;;;0.77;;
20391;SDS011;10355;53.688;10.078;2022-11-06T13:03:14;2.95;;;0.80;;
20391;SDS011;10355;53.688;10.078;2022-11-06T13:05:59;2.80;;;0.85;;
20391;SDS011;10355;53.688;10.078;2022-11-06T13:08:49;2.30;;;0.65;;
20391;SDS011;10355;53.688;10.078;2022-11-06T13:11:38;3.85;;;1.25;;
20391;SDS011;10355;53.688;10.078;2022-11-06T13:14:24;4.00;;;1.00;;
20391;SDS011;10355;53.688;10.078;2022-11-06T13:17:11;2.58;;;0.82;;
20391;SDS011;10355;53.688;10.078;2022-11-06T13:19:58;1.63;;;0.82;;
20391;SDS011;10355;53.688;10.078;2022-11-06T13:22:44;1.30;;;0.68;;
20391;SDS011;10355;53.688;10.078;2022-11-06T13:25:33;1.67;;;0.70;;
20391;SDS011;10355;53.688;10.078;2022-11-06T13:28:22;2.30;;;0.90;;
20391;SDS011;10355;53.688;10.078;2022-11-06T13:31:06;3.58;;;1.13;;
20391;SDS011;10355;53.688;10.078;2022-11-06T13:33:50;4.82;;;0.90;;
20391;SDS011;10355;53.688;10.078;2022-11-06T13:36:36;2.92;;;1.10;;
20391;SDS011;10355;53.688;10.078;2022-11-06T13:39:21;1.85;;;1.08;;
20391;SDS011;10355;53.688;10.078;2022-11-06T13:42:09;1.88;;;0.77;;
20391;SDS011;10355;53.688;10.078;2022-11-06T13:44:55;3.30;;;1.10;;
20391;SDS011;10355;53.688;10.078;2022-11-06T13:47:40;2.17;;;0.70;;
20391;SDS011;10355;53.688;10.078;2022-11-06T13:50:25;2.28;;;0.90;;
20391;SDS011;10355;53.688;10.078;2022-11-06T13:53:13;1.95;;;0.93;;
20391;SDS011;10355;53.688;10.078;2022-11-06T13:56:03;5.45;;;1.00;;
20391;SDS011;10355;53.688;10.078;2022-11-06T13:58:52;2.75;;;1.17;;
20391;SDS011;10355;53.688;10.078;2022-11-06T14:01:42;1.45;;;0.75;;
20391;SDS011;10355;53.688;10.078;2022-11-06T14:04:31;1.00;;;0.65;;
20391;SDS011;10355;53.688;10.078;2022-11-06T14:07:18;2.95;;;1.00;;
20391;SDS011;10355;53.688;10.078;2022-11-06T14:10:03;1.40;;;0.90;;
20391;SDS011;10355;53.688;10.078;2022-11-06T14:12:47;3.35;;;1.00;;
20391;SDS011;10355;53.688;10.078;2022-11-06T14:15:31;3.85;;;1.25;;
20391;SDS011;10355;53.688;10.078;2022-11-06T14:18:19;2.33;;;0.90;;
20391;SDS011;10355;53.688;10.078;2022-11-06T14:21:25;4.20;;;1.02;;
20391;SDS011;10355;53.688;10.078;2022-11-06T14:27:10;2.25;;;1.20;;
20391;SDS011;10355;53.688;10.078;2022-11-06T14:32:46;1.98;;;1.10;;
20391;SDS011;10355;53.688;10.078;2022-11-06T14:35:30;3.33;;;1.00;;
20391;SDS011;10355;53.688;10.078;2022-11-06T14:47:33;2.53;;;0.95;;
20391;SDS011;10355;53.688;10.078;2022-11-06T14:50:26;2.67;;;1.00;;
20391;SDS011;10355;53.688;10.078;2022-11-06T14:53:16;2.78;;;1.08;;
20391;SDS011;10355;53.688;10.078;2022-11-06T14:56:01;4.65;;;1.25;;
20391;SDS011;10355;53.688;10.078;2022-11-06T14:58:46;4.60;;;1.30;;
20391;SDS011;10355;53.688;10.078;2022-11-06T15:01:30;1.65;;;1.05;;
20391;SDS011;10355;53.688;10.078;2022-11-06T15:04:16;2.97;;;1.20;;
20391;SDS011;10355;53.688;10.078;2022-11-06T15:07:07;2.25;;;1.20;;
20391;SDS011;10355;53.688;10.078;2022-11-06T15:09:50;3.53;;;1.35;;
20391;SDS011;10355;53.688;10.078;2022-11-06T15:15:34;2.47;;;0.90;;
20391;SDS011;10355;53.688;10.078;2022-11-06T15:18:18;3.25;;;1.35;;
20391;SDS011;10355;53.688;10.078;2022-11-06T15:21:06;2.78;;;1.10;;
20391;SDS011;10355;53.688;10.078;2022-11-06T15:23:53;3.53;;;1.05;;
20391;SDS011;10355;53.688;10.078;2022-11-06T15:26:36;2.30;;;1.20;;
20391;SDS011;10355;53.688;10.078;2022-11-06T15:29:23;1.67;;;1.10;;
20391;SDS011;10355;53.688;10.078;2022-11-06T15:32:08;3.20;;;1.20;;
20391;SDS011;10355;53.688;10.078;2022-11-06T15:34:53;2.08;;;1.20;;
20391;SDS011;10355;53.688;10.078;2022-11-06T15:37:41;2.35;;;1.27;;
20391;SDS011;10355;53.688;10.078;2022-11-06T15:40:27;4.38;;;1.23;;
20391;SDS011;10355;53.688;10.078;2022-11-06T15:43:17;1.60;;;1.20;;
20391;SDS011;10355;53.688;10.078;2022-11-06T15:46:01;3.20;;;1.35;;
20391;SDS011;10355;53.688;10.078;2022-11-06T15:48:48;5.22;;;1.20;;
20391;SDS011;10355;53.688;10.078;2022-11-06T15:51:51;2.35;;;1.20;;
20391;SDS011;10355;53.688;10.078;2022-11-06T15:54:36;3.80;;;1.10;;
20391;SDS011;10355;53.688;10.078;2022-11-06T15:57:20;4.43;;;1.30;;
20391;SDS011;10355;53.688;10.078;2022-11-06T16:00:07;6.47;;;1.30;;
20391;SDS011;10355;53.688;10.078;2022-11-06T16:02:51;4.05;;;1.35;;
20391;SDS011;10355;53.688;10.078;2022-11-06T16:05:34;1.75;;;1.00;;
20391;SDS011;10355;53.688;10.078;2022-11-06T16:08:18;2.92;;;1.33;;
20391;SDS011;10355;53.688;10.078;2022-11-06T16:11:03;3.22;;;1.15;;
20391;SDS011;10355;53.688;10.078;2022-11-06T16:13:53;1.63;;;1.27;;
20391;SDS011;10355;53.688;10.078;2022-11-06T16:16:37;1.58;;;1.10;;
20391;SDS011;10355;53.688;10.078;2022-11-06T16:19:26;2.65;;;1.30;;
20391;SDS011;10355;53.688;10.078;2022-11-06T16:22:11;2.85;;;1.20;;
20391;SDS011;10355;53.688;10.078;2022-11-06T16:24:56;3.85;;;1.40;;
20391;SDS011;10355;53.688;10.078;2022-11-06T16:27:42;4.00;;;1.17;;
20391;SDS011;10355;53.688;10.078;2022-11-06T16:30:25;3.42;;;1.10;;
20391;SDS011;10355;53.688;10.078;2022-11-06T16:33:13;3.05;;;1.20;;
20391;SDS011;10355;53.688;10.078;2022-11-06T16:36:09;2.10;;;1.10;;
20391;SDS011;10355;53.688;10.078;2022-11-06T16:38:53;5.28;;;1.55;;
20391;SDS011;10355;53.688;10.078;2022-11-06T16:41:57;4.22;;;1.30;;
20391;SDS011;10355;53.688;10.078;2022-11-06T16:44:45;3.25;;;1.45;;
20391;SDS011;10355;53.688;10.078;2022-11-06T16:47:28;3.65;;;1.48;;
20391;SDS011;10355;53.688;10.078;2022-11-06T16:53:18;2.95;;;1.23;;
20391;SDS011;10355;53.688;10.078;2022-11-06T16:56:02;4.03;;;1.50;;
20391;SDS011;10355;53.688;10.078;2022-11-06T16:58:47;3.70;;;1.50;;
20391;SDS011;10355;53.688;10.078;2022-11-06T17:01:37;3.05;;;1.35;;
20391;SDS011;10355;53.688;10.078;2022-11-06T17:04:21;3.83;;;1.20;;
20391;SDS011;10355;53.688;10.078;2022-11-06T17:07:11;1.98;;;1.13;;
20391;SDS011;10355;53.688;10.078;2022-11-06T17:12:56;2.58;;;1.40;;
20391;SDS011;10355;53.688;10.078;2022-11-06T17:15:39;4.25;;;1.30;;
20391;SDS011;10355;53.688;10.078;2022-11-06T17:18:24;3.15;;;1.42;;
20391;SDS011;10355;53.688;10.078;2022-11-06T17:21:10;2.92;;;1.35;;
20391;SDS011;10355;53.688;10.078;2022-11-06T17:23:53;4.68;;;1.40;;
20391;SDS011;10355;53.688;10.078;2022-11-06T17:26:56;3.33;;;1.30;;
20391;SDS011;10355;53.688;10.078;2022-11-06T17:29:39;5.53;;;1.48;;
20391;SDS011;10355;53.688;10.078;2022-11-06T17:32:22;2.20;;;1.30;;
20391;SDS011;10355;53.688;10.078;2022-11-06T17:35:08;4.38;;;1.45;;
20391;SDS011;10355;53.688;10.078;2022-11-06T17:37:51;3.35;;;1.40;;